Mlawa, Poland
Current Conditions -  °F | °C
As of 4:30 AM on Saturday 25 Oct 2014 (Local Time) from EPMO Reporting Station
Clear Clear  
Wind Chill: 15°   Ceiling: Unl
Heat Index: 25°   Visibility: 6mi
Dew Point: 16°   Wind: 9mph
Humidity: 69%   Direction: 100°E
Pressure: 30.36"   Gusts: NA
Location:  53.12°N, 20.36°E
Report Text: EPMO 250230Z 10008KT CAVOK M04/M09 Q1028
Loading
Personal Weather Stations






























Interactive Weather Map
Tropical Storm Tracking
New forecast layout! Learn more

10-Day Weather Forecast

Advertisements
Track Severe Weather on mobile